sensor_id;sensor_type;location;lat;lon;timestamp;P1;durP1;ratioP1;P2;durP2;ratioP2
36415;SDS011;22447;44.530;18.620;2023-02-26T00:00:05;40.45;;;14.48;;
36415;SDS011;22447;44.530;18.620;2023-02-26T00:02:36;62.17;;;22.42;;
36415;SDS011;22447;44.530;18.620;2023-02-26T00:05:03;45.35;;;16.80;;
36415;SDS011;22447;44.530;18.620;2023-02-26T00:07:30;45.83;;;16.60;;
36415;SDS011;22447;44.530;18.620;2023-02-26T00:09:56;41.90;;;16.17;;
36415;SDS011;22447;44.530;18.620;2023-02-26T00:12:22;42.78;;;15.07;;
36415;SDS011;22447;44.530;18.620;2023-02-26T00:14:48;46.92;;;17.58;;
36415;SDS011;22447;44.530;18.620;2023-02-26T00:20:36;55.25;;;20.90;;
36415;SDS011;22447;44.530;18.620;2023-02-26T00:23:02;72.40;;;25.00;;
36415;SDS011;22447;44.530;18.620;2023-02-26T00:25:28;43.42;;;14.43;;
36415;SDS011;22447;44.530;18.620;2023-02-26T00:27:54;45.47;;;17.95;;
36415;SDS011;22447;44.530;18.620;2023-02-26T00:30:21;43.90;;;16.45;;
36415;SDS011;22447;44.530;18.620;2023-02-26T00:32:48;52.35;;;18.70;;
36415;SDS011;22447;44.530;18.620;2023-02-26T00:35:15;59.80;;;22.70;;
36415;SDS011;22447;44.530;18.620;2023-02-26T00:40:28;38.38;;;15.02;;
36415;SDS011;22447;44.530;18.620;2023-02-26T00:43:04;23.27;;;9.98;;
36415;SDS011;22447;44.530;18.620;2023-02-26T00:45:32;37.78;;;13.13;;
36415;SDS011;22447;44.530;18.620;2023-02-26T00:50:34;66.30;;;23.60;;
36415;SDS011;22447;44.530;18.620;2023-02-26T00:55:34;35.25;;;14.77;;
36415;SDS011;22447;44.530;18.620;2023-02-26T00:58:00;36.28;;;16.45;;
36415;SDS011;22447;44.530;18.620;2023-02-26T01:00:28;24.15;;;11.77;;
36415;SDS011;22447;44.530;18.620;2023-02-26T01:02:55;20.90;;;9.88;;
36415;SDS011;22447;44.530;18.620;2023-02-26T01:05:21;11.77;;;7.35;;
36415;SDS011;22447;44.530;18.620;2023-02-26T01:10:47;9.60;;;5.63;;
36415;SDS011;22447;44.530;18.620;2023-02-26T01:13:13;7.55;;;5.13;;
36415;SDS011;22447;44.530;18.620;2023-02-26T01:15:40;9.35;;;5.05;;
36415;SDS011;22447;44.530;18.620;2023-02-26T01:18:18;9.48;;;5.88;;
36415;SDS011;22447;44.530;18.620;2023-02-26T01:21:01;20.38;;;10.73;;
36415;SDS011;22447;44.530;18.620;2023-02-26T01:23:30;18.55;;;8.57;;
36415;SDS011;22447;44.530;18.620;2023-02-26T01:26:01;9.25;;;4.85;;
36415;SDS011;22447;44.530;18.620;2023-02-26T01:28:35;7.15;;;4.63;;
36415;SDS011;22447;44.530;18.620;2023-02-26T01:31:02;6.32;;;4.30;;
36415;SDS011;22447;44.530;18.620;2023-02-26T01:33:46;5.72;;;4.45;;
36415;SDS011;22447;44.530;18.620;2023-02-26T01:36:24;8.20;;;5.90;;
36415;SDS011;22447;44.530;18.620;2023-02-26T01:38:57;11.05;;;6.28;;
36415;SDS011;22447;44.530;18.620;2023-02-26T01:41:45;7.88;;;6.13;;
36415;SDS011;22447;44.530;18.620;2023-02-26T01:49:39;11.60;;;7.97;;
36415;SDS011;22447;44.530;18.620;2023-02-26T01:52:58;16.08;;;9.40;;
36415;SDS011;22447;44.530;18.620;2023-02-26T01:54:54;20.52;;;11.20;;
36415;SDS011;22447;44.530;18.620;2023-02-26T01:57:20;34.67;;;15.95;;
36415;SDS011;22447;44.530;18.620;2023-02-26T01:59:47;26.70;;;13.85;;
36415;SDS011;22447;44.530;18.620;2023-02-26T02:02:16;21.90;;;11.77;;
36415;SDS011;22447;44.530;18.620;2023-02-26T02:04:46;15.75;;;10.15;;
36415;SDS011;22447;44.530;18.620;2023-02-26T02:07:13;13.45;;;9.85;;
36415;SDS011;22447;44.530;18.620;2023-02-26T02:09:40;15.25;;;8.60;;
36415;SDS011;22447;44.530;18.620;2023-02-26T02:15:10;21.85;;;11.45;;
36415;SDS011;22447;44.530;18.620;2023-02-26T02:18:09;17.13;;;10.90;;
36415;SDS011;22447;44.530;18.620;2023-02-26T02:20:56;14.43;;;9.35;;
36415;SDS011;22447;44.530;18.620;2023-02-26T02:23:51;18.30;;;10.00;;
36415;SDS011;22447;44.530;18.620;2023-02-26T02:31:57;9.73;;;7.05;;
36415;SDS011;22447;44.530;18.620;2023-02-26T02:39:27;10.68;;;7.22;;
36415;SDS011;22447;44.530;18.620;2023-02-26T02:42:02;9.88;;;6.63;;
36415;SDS011;22447;44.530;18.620;2023-02-26T02:44:33;10.07;;;6.43;;
36415;SDS011;22447;44.530;18.620;2023-02-26T02:47:08;8.00;;;5.85;;
36415;SDS011;22447;44.530;18.620;2023-02-26T02:49:38;7.63;;;5.57;;
36415;SDS011;22447;44.530;18.620;2023-02-26T02:52:21;7.80;;;5.90;;
36415;SDS011;22447;44.530;18.620;2023-02-26T02:55:39;6.70;;;5.13;;
36415;SDS011;22447;44.530;18.620;2023-02-26T02:57:50;4.20;;;3.67;;
36415;SDS011;22447;44.530;18.620;2023-02-26T03:00:25;4.40;;;3.22;;
36415;SDS011;22447;44.530;18.620;2023-02-26T03:05:23;3.72;;;2.75;;
36415;SDS011;22447;44.530;18.620;2023-02-26T03:07:59;6.63;;;3.22;;
36415;SDS011;22447;44.530;18.620;2023-02-26T03:10:29;4.00;;;2.75;;
36415;SDS011;22447;44.530;18.620;2023-02-26T03:12:56;4.30;;;2.60;;
36415;SDS011;22447;44.530;18.620;2023-02-26T03:15:30;4.32;;;2.50;;
36415;SDS011;22447;44.530;18.620;2023-02-26T03:20:53;3.65;;;2.30;;
36415;SDS011;22447;44.530;18.620;2023-02-26T03:26:09;3.95;;;2.55;;
36415;SDS011;22447;44.530;18.620;2023-02-26T03:28:44;4.30;;;2.55;;
36415;SDS011;22447;44.530;18.620;2023-02-26T03:34:02;2.55;;;2.00;;
36415;SDS011;22447;44.530;18.620;2023-02-26T03:36:42;3.08;;;1.90;;
36415;SDS011;22447;44.530;18.620;2023-02-26T03:39:25;3.47;;;2.00;;
36415;SDS011;22447;44.530;18.620;2023-02-26T03:41:56;3.40;;;2.20;;
36415;SDS011;22447;44.530;18.620;2023-02-26T03:44:46;4.18;;;1.85;;
36415;SDS011;22447;44.530;18.620;2023-02-26T03:47:14;2.70;;;1.77;;
36415;SDS011;22447;44.530;18.620;2023-02-26T03:52:10;4.28;;;2.08;;
36415;SDS011;22447;44.530;18.620;2023-02-26T03:55:12;3.85;;;2.40;;
36415;SDS011;22447;44.530;18.620;2023-02-26T03:57:52;5.30;;;2.38;;
36415;SDS011;22447;44.530;18.620;2023-02-26T04:00:32;4.28;;;2.10;;
36415;SDS011;22447;44.530;18.620;2023-02-26T04:03:25;4.23;;;2.43;;
36415;SDS011;22447;44.530;18.620;2023-02-26T04:05:59;9.20;;;2.90;;
36415;SDS011;22447;44.530;18.620;2023-02-26T04:08:27;7.35;;;2.85;;
36415;SDS011;22447;44.530;18.620;2023-02-26T04:10:54;5.30;;;2.97;;
36415;SDS011;22447;44.530;18.620;2023-02-26T04:13:44;5.90;;;2.70;;
36415;SDS011;22447;44.530;18.620;2023-02-26T04:16:11;4.22;;;2.55;;
36415;SDS011;22447;44.530;18.620;2023-02-26T04:18:38;6.40;;;2.92;;
36415;SDS011;22447;44.530;18.620;2023-02-26T04:21:06;33.50;;;4.65;;
36415;SDS011;22447;44.530;18.620;2023-02-26T04:23:35;6.20;;;2.92;;
36415;SDS011;22447;44.530;18.620;2023-02-26T04:26:01;5.90;;;3.17;;
36415;SDS011;22447;44.530;18.620;2023-02-26T04:28:28;5.60;;;3.45;;
36415;SDS011;22447;44.530;18.620;2023-02-26T04:30:55;7.70;;;3.50;;
36415;SDS011;22447;44.530;18.620;2023-02-26T04:33:21;5.70;;;3.08;;
36415;SDS011;22447;44.530;18.620;2023-02-26T04:35:47;5.70;;;3.10;;
36415;SDS011;22447;44.530;18.620;2023-02-26T04:38:15;7.03;;;2.45;;
36415;SDS011;22447;44.530;18.620;2023-02-26T04:40:40;5.00;;;2.20;;
36415;SDS011;22447;44.530;18.620;2023-02-26T04:43:10;5.70;;;2.22;;
36415;SDS011;22447;44.530;18.620;2023-02-26T04:45:45;1.10;;;1.00;;
36415;SDS011;22447;44.530;18.620;2023-02-26T04:48:12;4.57;;;1.20;;
36415;SDS011;22447;44.530;18.620;2023-02-26T04:50:39;9.25;;;2.28;;
36415;SDS011;22447;44.530;18.620;2023-02-26T04:53:05;6.18;;;2.13;;
36415;SDS011;22447;44.530;18.620;2023-02-26T04:55:33;1.55;;;0.90;;
36415;SDS011;22447;44.530;18.620;2023-02-26T04:58:00;6.55;;;2.00;;
36415;SDS011;22447;44.530;18.620;2023-02-26T05:00:26;2.70;;;1.30;;
36415;SDS011;22447;44.530;18.620;2023-02-26T05:02:53;3.08;;;1.67;;
36415;SDS011;22447;44.530;18.620;2023-02-26T05:05:19;1.88;;;1.10;;
36415;SDS011;22447;44.530;18.620;2023-02-26T05:07:45;4.10;;;1.27;;
36415;SDS011;22447;44.530;18.620;2023-02-26T05:10:13;5.18;;;1.40;;
36415;SDS011;22447;44.530;18.620;2023-02-26T05:12:39;6.03;;;1.75;;
36415;SDS011;22447;44.530;18.620;2023-02-26T05:15:05;37.13;;;2.90;;
36415;SDS011;22447;44.530;18.620;2023-02-26T05:17:32;14.75;;;2.15;;
36415;SDS011;22447;44.530;18.620;2023-02-26T05:19:58;45.55;;;4.25;;
36415;SDS011;22447;44.530;18.620;2023-02-26T05:22:25;16.95;;;2.30;;
36415;SDS011;22447;44.530;18.620;2023-02-26T05:24:51;7.07;;;2.20;;
36415;SDS011;22447;44.530;18.620;2023-02-26T05:27:17;6.88;;;2.95;;
36415;SDS011;22447;44.530;18.620;2023-02-26T05:29:45;34.45;;;3.70;;
36415;SDS011;22447;44.530;18.620;2023-02-26T05:32:12;3.63;;;1.70;;
36415;SDS011;22447;44.530;18.620;2023-02-26T05:34:38;5.47;;;1.75;;
36415;SDS011;22447;44.530;18.620;2023-02-26T05:37:04;6.90;;;2.92;;
36415;SDS011;22447;44.530;18.620;2023-02-26T05:39:30;12.23;;;3.03;;
36415;SDS011;22447;44.530;18.620;2023-02-26T05:41:56;14.10;;;2.90;;
36415;SDS011;22447;44.530;18.620;2023-02-26T05:44:22;3.15;;;2.20;;
36415;SDS011;22447;44.530;18.620;2023-02-26T05:46:48;3.58;;;2.15;;
36415;SDS011;22447;44.530;18.620;2023-02-26T05:49:14;7.20;;;3.35;;
36415;SDS011;22447;44.530;18.620;2023-02-26T05:51:40;12.60;;;4.40;;
36415;SDS011;22447;44.530;18.620;2023-02-26T05:54:07;8.38;;;4.35;;
36415;SDS011;22447;44.530;18.620;2023-02-26T05:56:34;8.70;;;3.50;;
36415;SDS011;22447;44.530;18.620;2023-02-26T05:59:01;6.78;;;3.58;;
36415;SDS011;22447;44.530;18.620;2023-02-26T06:01:27;11.05;;;4.88;;
36415;SDS011;22447;44.530;18.620;2023-02-26T06:03:53;10.40;;;4.65;;
36415;SDS011;22447;44.530;18.620;2023-02-26T06:06:19;12.65;;;5.80;;
36415;SDS011;22447;44.530;18.620;2023-02-26T06:08:46;9.73;;;4.22;;
36415;SDS011;22447;44.530;18.620;2023-02-26T06:11:12;19.75;;;4.70;;
36415;SDS011;22447;44.530;18.620;2023-02-26T06:13:38;10.02;;;3.70;;
36415;SDS011;22447;44.530;18.620;2023-02-26T06:16:04;15.82;;;4.25;;
36415;SDS011;22447;44.530;18.620;2023-02-26T06:18:31;20.38;;;6.25;;
36415;SDS011;22447;44.530;18.620;2023-02-26T06:20:58;14.63;;;5.45;;
36415;SDS011;22447;44.530;18.620;2023-02-26T06:23:25;11.52;;;3.95;;
36415;SDS011;22447;44.530;18.620;2023-02-26T06:25:51;11.10;;;3.75;;
36415;SDS011;22447;44.530;18.620;2023-02-26T06:28:17;6.32;;;2.95;;
36415;SDS011;22447;44.530;18.620;2023-02-26T06:30:44;6.50;;;3.75;;
36415;SDS011;22447;44.530;18.620;2023-02-26T06:33:10;7.57;;;4.28;;
36415;SDS011;22447;44.530;18.620;2023-02-26T06:35:36;8.73;;;5.00;;
36415;SDS011;22447;44.530;18.620;2023-02-26T06:38:02;18.88;;;9.18;;
36415;SDS011;22447;44.530;18.620;2023-02-26T06:40:28;11.38;;;6.97;;
36415;SDS011;22447;44.530;18.620;2023-02-26T06:42:55;15.27;;;9.70;;
36415;SDS011;22447;44.530;18.620;2023-02-26T06:45:21;20.10;;;11.02;;
36415;SDS011;22447;44.530;18.620;2023-02-26T06:47:49;20.67;;;11.35;;
36415;SDS011;22447;44.530;18.620;2023-02-26T06:50:15;25.23;;;12.85;;
36415;SDS011;22447;44.530;18.620;2023-02-26T06:52:42;19.40;;;11.48;;
36415;SDS011;22447;44.530;18.620;2023-02-26T06:55:08;26.83;;;14.55;;
36415;SDS011;22447;44.530;18.620;2023-02-26T06:57:34;29.33;;;15.50;;
36415;SDS011;22447;44.530;18.620;2023-02-26T07:00:00;34.92;;;17.67;;
36415;SDS011;22447;44.530;18.620;2023-02-26T07:02:28;27.75;;;14.98;;
36415;SDS011;22447;44.530;18.620;2023-02-26T07:04:54;39.80;;;17.52;;
36415;SDS011;22447;44.530;18.620;2023-02-26T07:07:20;27.02;;;15.13;;
36415;SDS011;22447;44.530;18.620;2023-02-26T07:09:46;28.95;;;14.80;;
36415;SDS011;22447;44.530;18.620;2023-02-26T07:12:12;28.25;;;15.23;;
36415;SDS011;22447;44.530;18.620;2023-02-26T07:14:38;29.33;;;15.98;;
36415;SDS011;22447;44.530;18.620;2023-02-26T07:17:04;28.83;;;15.23;;
36415;SDS011;22447;44.530;18.620;2023-02-26T07:19:30;28.42;;;14.73;;
36415;SDS011;22447;44.530;18.620;2023-02-26T07:21:56;29.80;;;15.75;;
36415;SDS011;22447;44.530;18.620;2023-02-26T07:24:22;28.77;;;15.00;;
36415;SDS011;22447;44.530;18.620;2023-02-26T07:26:48;24.95;;;14.13;;
36415;SDS011;22447;44.530;18.620;2023-02-26T07:29:14;30.85;;;15.95;;
36415;SDS011;22447;44.530;18.620;2023-02-26T07:31:40;28.45;;;13.85;;
36415;SDS011;22447;44.530;18.620;2023-02-26T07:34:06;23.00;;;12.07;;
36415;SDS011;22447;44.530;18.620;2023-02-26T07:36:32;22.10;;;12.88;;
36415;SDS011;22447;44.530;18.620;2023-02-26T07:38:58;20.85;;;11.88;;
36415;SDS011;22447;44.530;18.620;2023-02-26T07:41:24;21.52;;;11.98;;
36415;SDS011;22447;44.530;18.620;2023-02-26T07:43:50;19.60;;;11.85;;
36415;SDS011;22447;44.530;18.620;2023-02-26T07:46:16;20.13;;;12.32;;
36415;SDS011;22447;44.530;18.620;2023-02-26T07:48:42;23.58;;;14.63;;
36415;SDS011;22447;44.530;18.620;2023-02-26T07:51:08;25.20;;;14.70;;
36415;SDS011;22447;44.530;18.620;2023-02-26T07:53:35;22.63;;;13.02;;
36415;SDS011;22447;44.530;18.620;2023-02-26T07:56:01;23.20;;;13.98;;
36415;SDS011;22447;44.530;18.620;2023-02-26T07:58:27;25.88;;;14.73;;
36415;SDS011;22447;44.530;18.620;2023-02-26T08:00:53;28.73;;;15.25;;
36415;SDS011;22447;44.530;18.620;2023-02-26T08:03:19;27.10;;;15.90;;
36415;SDS011;22447;44.530;18.620;2023-02-26T08:05:45;27.80;;;15.68;;
36415;SDS011;22447;44.530;18.620;2023-02-26T08:08:11;29.80;;;16.15;;
36415;SDS011;22447;44.530;18.620;2023-02-26T08:10:37;29.48;;;16.10;;
36415;SDS011;22447;44.530;18.620;2023-02-26T08:13:06;29.85;;;15.43;;
36415;SDS011;22447;44.530;18.620;2023-02-26T08:15:32;28.52;;;15.07;;
36415;SDS011;22447;44.530;18.620;2023-02-26T08:17:58;28.08;;;16.42;;
36415;SDS011;22447;44.530;18.620;2023-02-26T08:20:24;37.35;;;21.77;;
36415;SDS011;22447;44.530;18.620;2023-02-26T08:22:50;35.03;;;20.52;;
36415;SDS011;22447;44.530;18.620;2023-02-26T08:25:16;29.55;;;16.27;;
36415;SDS011;22447;44.530;18.620;2023-02-26T08:27:42;28.70;;;16.45;;
36415;SDS011;22447;44.530;18.620;2023-02-26T08:30:09;30.45;;;16.67;;
36415;SDS011;22447;44.530;18.620;2023-02-26T08:32:35;31.52;;;16.48;;
36415;SDS011;22447;44.530;18.620;2023-02-26T08:35:04;29.38;;;16.40;;
36415;SDS011;22447;44.530;18.620;2023-02-26T08:37:30;27.33;;;16.58;;
36415;SDS011;22447;44.530;18.620;2023-02-26T08:39:56;34.97;;;18.63;;
36415;SDS011;22447;44.530;18.620;2023-02-26T08:42:22;30.25;;;18.52;;
36415;SDS011;22447;44.530;18.620;2023-02-26T09:30:06;55.00;;;31.77;;
36415;SDS011;22447;44.530;18.620;2023-02-26T09:32:33;67.57;;;36.88;;
36415;SDS011;22447;44.530;18.620;2023-02-26T09:34:59;50.10;;;28.13;;
36415;SDS011;22447;44.530;18.620;2023-02-26T09:37:25;59.90;;;31.20;;
36415;SDS011;22447;44.530;18.620;2023-02-26T09:39:51;59.72;;;32.47;;
36415;SDS011;22447;44.530;18.620;2023-02-26T09:42:27;62.60;;;32.67;;
36415;SDS011;22447;44.530;18.620;2023-02-26T09:45:32;59.28;;;32.30;;
36415;SDS011;22447;44.530;18.620;2023-02-26T09:48:03;68.32;;;34.90;;
36415;SDS011;22447;44.530;18.620;2023-02-26T09:50:36;65.45;;;35.15;;
36415;SDS011;22447;44.530;18.620;2023-02-26T09:55:48;61.80;;;31.90;;
36415;SDS011;22447;44.530;18.620;2023-02-26T09:58:22;60.63;;;32.55;;
36415;SDS011;22447;44.530;18.620;2023-02-26T10:14:34;54.97;;;30.55;;
36415;SDS011;22447;44.530;18.620;2023-02-26T10:17:22;59.88;;;33.28;;
36415;SDS011;22447;44.530;18.620;2023-02-26T10:20:14;65.43;;;35.60;;
36415;SDS011;22447;44.530;18.620;2023-02-26T10:25:32;64.78;;;34.40;;
36415;SDS011;22447;44.530;18.620;2023-02-26T10:31:04;54.65;;;29.65;;
36415;SDS011;22447;44.530;18.620;2023-02-26T10:36:48;49.15;;;27.42;;
36415;SDS011;22447;44.530;18.620;2023-02-26T10:41:58;50.25;;;28.52;;
36415;SDS011;22447;44.530;18.620;2023-02-26T10:50:08;41.85;;;23.60;;
36415;SDS011;22447;44.530;18.620;2023-02-26T10:52:37;41.08;;;22.20;;
36415;SDS011;22447;44.530;18.620;2023-02-26T10:55:14;31.42;;;20.38;;
36415;SDS011;22447;44.530;18.620;2023-02-26T10:58:02;38.15;;;21.92;;
36415;SDS011;22447;44.530;18.620;2023-02-26T11:00:30;58.70;;;26.25;;
36415;SDS011;22447;44.530;18.620;2023-02-26T11:02:59;50.80;;;23.75;;
36415;SDS011;22447;44.530;18.620;2023-02-26T11:05:28;39.20;;;20.35;;
36415;SDS011;22447;44.530;18.620;2023-02-26T11:07:56;53.40;;;27.95;;
36415;SDS011;22447;44.530;18.620;2023-02-26T11:10:38;59.15;;;26.48;;
36415;SDS011;22447;44.530;18.620;2023-02-26T11:13:32;44.97;;;21.90;;
36415;SDS011;22447;44.530;18.620;2023-02-26T11:16:02;35.97;;;19.63;;
36415;SDS011;22447;44.530;18.620;2023-02-26T11:18:54;61.67;;;27.77;;
36415;SDS011;22447;44.530;18.620;2023-02-26T11:21:27;52.75;;;23.67;;
36415;SDS011;22447;44.530;18.620;2023-02-26T11:23:57;27.67;;;13.68;;
36415;SDS011;22447;44.530;18.620;2023-02-26T11:26:35;29.30;;;15.02;;
36415;SDS011;22447;44.530;18.620;2023-02-26T11:29:02;21.33;;;12.13;;
36415;SDS011;22447;44.530;18.620;2023-02-26T11:31:29;20.23;;;13.57;;
36415;SDS011;22447;44.530;18.620;2023-02-26T11:34:04;21.65;;;12.25;;
36415;SDS011;22447;44.530;18.620;2023-02-26T11:36:36;22.42;;;11.48;;
36415;SDS011;22447;44.530;18.620;2023-02-26T11:39:15;25.00;;;14.63;;
36415;SDS011;22447;44.530;18.620;2023-02-26T11:41:44;22.30;;;12.35;;
36415;SDS011;22447;44.530;18.620;2023-02-26T11:44:16;34.00;;;16.48;;
36415;SDS011;22447;44.530;18.620;2023-02-26T11:46:54;32.25;;;15.10;;
36415;SDS011;22447;44.530;18.620;2023-02-26T11:49:22;29.30;;;13.30;;
36415;SDS011;22447;44.530;18.620;2023-02-26T11:54:43;29.40;;;12.68;;
36415;SDS011;22447;44.530;18.620;2023-02-26T11:57:22;41.03;;;16.90;;
36415;SDS011;22447;44.530;18.620;2023-02-26T11:59:51;68.35;;;24.67;;
36415;SDS011;22447;44.530;18.620;2023-02-26T12:02:21;65.53;;;24.63;;
36415;SDS011;22447;44.530;18.620;2023-02-26T12:04:52;44.80;;;17.38;;
36415;SDS011;22447;44.530;18.620;2023-02-26T12:07:22;41.08;;;18.55;;
36415;SDS011;22447;44.530;18.620;2023-02-26T12:09:48;30.85;;;15.20;;
36415;SDS011;22447;44.530;18.620;2023-02-26T12:20:43;32.75;;;18.65;;
36415;SDS011;22447;44.530;18.620;2023-02-26T12:26:34;35.53;;;21.52;;
36415;SDS011;22447;44.530;18.620;2023-02-26T12:31:53;38.03;;;20.52;;
36415;SDS011;22447;44.530;18.620;2023-02-26T12:40:13;73.40;;;36.07;;
36415;SDS011;22447;44.530;18.620;2023-02-26T12:43:06;76.00;;;35.58;;
36415;SDS011;22447;44.530;18.620;2023-02-26T12:45:52;75.50;;;39.80;;
36415;SDS011;22447;44.530;18.620;2023-02-26T12:53:58;52.88;;;26.63;;
36415;SDS011;22447;44.530;18.620;2023-02-26T13:02:06;37.70;;;20.60;;
36415;SDS011;22447;44.530;18.620;2023-02-26T13:10:31;39.90;;;21.17;;
36415;SDS011;22447;44.530;18.620;2023-02-26T13:21:43;36.83;;;18.83;;
36415;SDS011;22447;44.530;18.620;2023-02-26T13:23:54;37.13;;;18.67;;
36415;SDS011;22447;44.530;18.620;2023-02-26T13:26:29;35.40;;;18.10;;
36415;SDS011;22447;44.530;18.620;2023-02-26T13:34:10;24.38;;;11.95;;
36415;SDS011;22447;44.530;18.620;2023-02-26T13:36:43;30.33;;;17.42;;
36415;SDS011;22447;44.530;18.620;2023-02-26T13:42:00;46.78;;;22.00;;
36415;SDS011;22447;44.530;18.620;2023-02-26T13:44:38;41.83;;;21.48;;
36415;SDS011;22447;44.530;18.620;2023-02-26T13:50:02;49.55;;;21.27;;
36415;SDS011;22447;44.530;18.620;2023-02-26T13:52:48;45.65;;;18.88;;
36415;SDS011;22447;44.530;18.620;2023-02-26T13:55:42;38.47;;;15.73;;
36415;SDS011;22447;44.530;18.620;2023-02-26T14:00:56;25.45;;;12.23;;
36415;SDS011;22447;44.530;18.620;2023-02-26T14:03:40;29.58;;;15.18;;
36415;SDS011;22447;44.530;18.620;2023-02-26T14:08:49;49.30;;;22.98;;
36415;SDS011;22447;44.530;18.620;2023-02-26T14:11:25;41.70;;;17.20;;
36415;SDS011;22447;44.530;18.620;2023-02-26T14:14:26;36.83;;;14.07;;
36415;SDS011;22447;44.530;18.620;2023-02-26T14:19:31;28.52;;;11.93;;
36415;SDS011;22447;44.530;18.620;2023-02-26T14:22:19;9.25;;;4.80;;
36415;SDS011;22447;44.530;18.620;2023-02-26T14:25:04;8.15;;;4.65;;
36415;SDS011;22447;44.530;18.620;2023-02-26T14:28:16;10.65;;;5.38;;
36415;SDS011;22447;44.530;18.620;2023-02-26T14:36:31;7.00;;;4.13;;
36415;SDS011;22447;44.530;18.620;2023-02-26T14:39:23;7.70;;;5.13;;
36415;SDS011;22447;44.530;18.620;2023-02-26T14:42:11;9.45;;;5.72;;
36415;SDS011;22447;44.530;18.620;2023-02-26T14:44:46;13.20;;;7.07;;
36415;SDS011;22447;44.530;18.620;2023-02-26T14:47:17;28.65;;;12.38;;
36415;SDS011;22447;44.530;18.620;2023-02-26T14:49:44;22.95;;;12.00;;
36415;SDS011;22447;44.530;18.620;2023-02-26T15:00:25;7.60;;;5.15;;
36415;SDS011;22447;44.530;18.620;2023-02-26T15:24:52;32.50;;;17.42;;
36415;SDS011;22447;44.530;18.620;2023-02-26T15:27:19;36.75;;;21.33;;
36415;SDS011;22447;44.530;18.620;2023-02-26T15:29:45;56.55;;;29.10;;
36415;SDS011;22447;44.530;18.620;2023-02-26T15:35:13;56.00;;;28.90;;
36415;SDS011;22447;44.530;18.620;2023-02-26T15:37:41;63.33;;;35.20;;
36415;SDS011;22447;44.530;18.620;2023-02-26T15:40:07;55.55;;;30.27;;
36415;SDS011;22447;44.530;18.620;2023-02-26T15:42:36;46.72;;;27.20;;
36415;SDS011;22447;44.530;18.620;2023-02-26T15:45:04;51.97;;;27.52;;
36415;SDS011;22447;44.530;18.620;2023-02-26T15:47:37;49.75;;;21.88;;
36415;SDS011;22447;44.530;18.620;2023-02-26T15:50:04;40.67;;;23.55;;
36415;SDS011;22447;44.530;18.620;2023-02-26T15:52:30;45.97;;;24.00;;
36415;SDS011;22447;44.530;18.620;2023-02-26T15:54:58;35.95;;;18.55;;
36415;SDS011;22447;44.530;18.620;2023-02-26T15:57:27;35.75;;;19.27;;
36415;SDS011;22447;44.530;18.620;2023-02-26T15:59:59;37.58;;;19.40;;
36415;SDS011;22447;44.530;18.620;2023-02-26T16:02:37;41.95;;;18.65;;
36415;SDS011;22447;44.530;18.620;2023-02-26T16:05:05;39.03;;;19.30;;
36415;SDS011;22447;44.530;18.620;2023-02-26T16:07:32;43.33;;;19.85;;
36415;SDS011;22447;44.530;18.620;2023-02-26T16:10:06;44.65;;;24.30;;
36415;SDS011;22447;44.530;18.620;2023-02-26T16:12:40;52.90;;;29.85;;
36415;SDS011;22447;44.530;18.620;2023-02-26T16:15:11;68.45;;;32.42;;
36415;SDS011;22447;44.530;18.620;2023-02-26T16:17:41;72.50;;;39.20;;
36415;SDS011;22447;44.530;18.620;2023-02-26T16:20:12;75.65;;;42.40;;
36415;SDS011;22447;44.530;18.620;2023-02-26T16:22:42;78.38;;;43.00;;
36415;SDS011;22447;44.530;18.620;2023-02-26T16:25:16;78.47;;;44.53;;
36415;SDS011;22447;44.530;18.620;2023-02-26T16:27:53;81.00;;;43.03;;
36415;SDS011;22447;44.530;18.620;2023-02-26T16:30:25;73.75;;;39.95;;
36415;SDS011;22447;44.530;18.620;2023-02-26T16:33:00;72.20;;;38.67;;
36415;SDS011;22447;44.530;18.620;2023-02-26T16:35:31;71.93;;;38.30;;
36415;SDS011;22447;44.530;18.620;2023-02-26T16:38:09;73.60;;;38.75;;
36415;SDS011;22447;44.530;18.620;2023-02-26T16:40:53;68.55;;;37.58;;
36415;SDS011;22447;44.530;18.620;2023-02-26T16:43:32;68.65;;;38.10;;
36415;SDS011;22447;44.530;18.620;2023-02-26T16:46:03;72.00;;;37.90;;
36415;SDS011;22447;44.530;18.620;2023-02-26T16:48:30;63.42;;;35.58;;
36415;SDS011;22447;44.530;18.620;2023-02-26T16:51:21;64.90;;;36.72;;
36415;SDS011;22447;44.530;18.620;2023-02-26T16:53:57;67.35;;;35.45;;
36415;SDS011;22447;44.530;18.620;2023-02-26T16:56:30;68.88;;;35.97;;
36415;SDS011;22447;44.530;18.620;2023-02-26T16:59:12;69.30;;;36.90;;
36415;SDS011;22447;44.530;18.620;2023-02-26T17:01:51;69.50;;;36.70;;
36415;SDS011;22447;44.530;18.620;2023-02-26T17:04:18;66.10;;;35.92;;
36415;SDS011;22447;44.530;18.620;2023-02-26T17:06:47;63.38;;;36.00;;
36415;SDS011;22447;44.530;18.620;2023-02-26T17:14:41;63.20;;;36.85;;
36415;SDS011;22447;44.530;18.620;2023-02-26T17:17:09;91.28;;;44.70;;
36415;SDS011;22447;44.530;18.620;2023-02-26T17:19:36;81.93;;;44.97;;
36415;SDS011;22447;44.530;18.620;2023-02-26T17:22:02;85.40;;;46.60;;
36415;SDS011;22447;44.530;18.620;2023-02-26T17:24:31;94.15;;;49.90;;
36415;SDS011;22447;44.530;18.620;2023-02-26T17:27:01;104.32;;;58.95;;
36415;SDS011;22447;44.530;18.620;2023-02-26T17:32:02;100.35;;;54.75;;
36415;SDS011;22447;44.530;18.620;2023-02-26T17:34:34;91.30;;;50.25;;
36415;SDS011;22447;44.530;18.620;2023-02-26T17:37:00;98.75;;;53.17;;
36415;SDS011;22447;44.530;18.620;2023-02-26T17:39:29;91.32;;;48.67;;
36415;SDS011;22447;44.530;18.620;2023-02-26T17:41:56;97.72;;;50.03;;
36415;SDS011;22447;44.530;18.620;2023-02-26T17:44:22;102.22;;;53.47;;
36415;SDS011;22447;44.530;18.620;2023-02-26T17:46:48;106.90;;;55.58;;
36415;SDS011;22447;44.530;18.620;2023-02-26T17:49:14;116.10;;;58.28;;
36415;SDS011;22447;44.530;18.620;2023-02-26T17:51:40;125.93;;;59.20;;
36415;SDS011;22447;44.530;18.620;2023-02-26T17:54:06;120.78;;;59.90;;
36415;SDS011;22447;44.530;18.620;2023-02-26T17:56:33;119.70;;;58.80;;
36415;SDS011;22447;44.530;18.620;2023-02-26T17:59:00;127.95;;;61.15;;
36415;SDS011;22447;44.530;18.620;2023-02-26T18:01:26;121.93;;;60.97;;
36415;SDS011;22447;44.530;18.620;2023-02-26T18:03:52;136.57;;;65.28;;
36415;SDS011;22447;44.530;18.620;2023-02-26T18:06:19;153.85;;;71.97;;
36415;SDS011;22447;44.530;18.620;2023-02-26T18:08:46;165.55;;;74.57;;
36415;SDS011;22447;44.530;18.620;2023-02-26T18:11:13;130.88;;;62.92;;
36415;SDS011;22447;44.530;18.620;2023-02-26T18:13:40;127.38;;;61.80;;
36415;SDS011;22447;44.530;18.620;2023-02-26T18:16:49;134.52;;;63.13;;
36415;SDS011;22447;44.530;18.620;2023-02-26T18:18:58;123.68;;;59.03;;
36415;SDS011;22447;44.530;18.620;2023-02-26T18:21:25;128.30;;;61.05;;
36415;SDS011;22447;44.530;18.620;2023-02-26T18:23:51;105.80;;;54.00;;
36415;SDS011;22447;44.530;18.620;2023-02-26T18:26:21;117.72;;;57.00;;
36415;SDS011;22447;44.530;18.620;2023-02-26T18:28:48;108.97;;;53.78;;
36415;SDS011;22447;44.530;18.620;2023-02-26T18:31:16;113.25;;;59.30;;
36415;SDS011;22447;44.530;18.620;2023-02-26T18:33:42;115.22;;;54.80;;
36415;SDS011;22447;44.530;18.620;2023-02-26T18:39:05;122.75;;;60.20;;